Time;durP1;ratioP1;P1;durP2;ratioP2;P2;SDS_P1;SDS_P2;PMS_P1;PMS_P2;Temp;Humidity;BMP_temperature;BMP_pressure;BME280_temperature;BME280_humidity;BME280_pressure;Samples;Min_cycle;Max_cycle;Signal;HPM_P1;HPM_P2
2023/04/13 00:01:15;;;;;;;4.13;1.30;;;9.50;81.40;;;8.76;62.24;98687.00;5060169;28;20071;-78
2023/04/13 00:03:44;;;;;;;4.28;1.00;;;9.50;80.00;;;8.67;62.55;98683.13;5071403;28;20033;-78
2023/04/13 00:06:11;;;;;;;4.50;1.02;;;9.40;81.00;;;8.69;62.63;98689.03;5065631;28;20044;-78
2023/04/13 00:08:41;;;;;;;4.03;1.08;;;9.40;80.80;;;8.74;63.52;98679.28;5071169;28;20128;-78
2023/04/13 00:11:09;;;;;;;3.15;0.90;;;9.40;81.60;;;8.72;63.17;98681.34;5068341;28;20119;-76
2023/04/13 00:13:39;;;;;;;3.85;0.80;;;9.40;81.00;;;8.75;63.36;98688.84;5071108;28;20090;-78
2023/04/13 00:16:09;;;;;;;4.57;1.10;;;9.40;81.40;;;8.81;63.31;98686.25;5056300;28;20445;-77
2023/04/13 00:18:36;;;;;;;6.38;1.38;;;9.50;81.30;;;8.84;63.64;98678.63;5060002;28;20064;-79
2023/04/13 00:21:05;;;;;;;3.72;1.13;;;9.50;81.60;;;8.89;64.21;98693.84;5071284;28;20052;-77
2023/04/13 00:23:32;;;;;;;6.47;1.17;;;9.50;82.00;;;8.88;63.55;98677.09;5064456;28;20771;-77
2023/04/13 00:26:00;;;;;;;5.00;1.10;;;9.50;81.60;;;8.92;63.43;98680.84;5077371;28;20114;-78
2023/04/13 00:28:28;;;;;;;3.83;0.93;;;9.60;81.40;;;8.94;63.58;98673.44;5082734;28;20040;-78
2023/04/13 00:30:55;;;;;;;4.22;1.13;;;9.60;81.60;;;8.97;63.69;98672.94;5069221;28;20044;-78
2023/04/13 00:33:23;;;;;;;4.13;1.10;;;9.70;81.80;;;8.95;63.27;98674.25;5071927;28;20115;-78
2023/04/13 00:35:51;;;;;;;3.22;1.10;;;9.60;81.10;;;8.93;63.47;98681.63;5078654;28;20527;-78
2023/04/13 00:38:22;;;;;;;6.28;1.40;;;9.60;81.60;;;8.90;62.51;98668.84;5061394;28;20123;-78
2023/04/13 00:40:53;;;;;;;4.05;1.05;;;9.60;80.30;;;8.88;63.18;98671.78;5053266;28;20509;-80
2023/04/13 00:43:21;;;;;;;2.80;1.00;;;9.60;81.00;;;8.87;63.02;98682.63;5057284;28;20048;-78
2023/04/13 00:45:49;;;;;;;3.80;1.10;;;9.70;81.20;;;8.81;63.33;98683.59;5066822;28;20068;-78
2023/04/13 00:48:16;;;;;;;5.60;1.30;;;9.50;81.70;;;8.72;64.40;98677.88;5055954;28;20127;-78
2023/04/13 00:50:44;;;;;;;4.03;1.20;;;9.40;82.50;;;8.70;64.63;98680.00;5067663;28;20144;-77
2023/04/13 00:53:12;;;;;;;4.75;1.48;;;9.40;82.60;;;8.67;65.25;98677.81;5052460;28;20047;-77
2023/04/13 00:55:41;;;;;;;2.47;1.00;;;9.40;83.30;;;8.65;65.59;98680.72;5051469;28;20048;-78
2023/04/13 00:58:08;;;;;;;3.85;1.15;;;9.40;83.40;;;8.68;66.11;98679.41;5066320;28;20057;-76
2023/04/13 01:00:37;;;;;;;6.72;1.80;;;9.40;83.90;;;8.63;66.28;98671.38;5071331;28;20056;-77
2023/04/13 01:03:05;;;;;;;3.05;0.95;;;9.30;84.10;;;8.65;66.74;98675.41;5059674;28;20059;-78
2023/04/13 01:05:47;;;;;;;4.00;1.10;;;9.40;84.50;;;8.68;66.86;98674.91;5066647;28;20580;-76
2023/04/13 01:08:24;;;;;;;6.00;1.35;;;9.40;84.80;;;8.72;67.31;98678.69;5056342;28;20088;-79
2023/04/13 01:10:57;;;;;;;2.97;0.98;;;9.40;85.00;;;8.76;67.32;98671.03;5069674;28;20543;-77
2023/04/13 01:13:35;;;;;;;3.97;1.20;;;9.40;85.10;;;8.75;67.76;98675.56;5060407;28;20040;-77
2023/04/13 01:16:10;;;;;;;6.90;1.05;;;9.40;85.40;;;8.78;67.74;98679.56;5059041;28;20048;-78
2023/04/13 01:18:42;;;;;;;6.68;1.20;;;9.50;85.60;;;8.82;68.07;98675.38;5052999;28;20131;-78
2023/04/13 01:21:16;;;;;;;4.05;1.30;;;9.50;85.70;;;8.84;68.12;98672.50;5069784;28;20040;-77
2023/04/13 01:24:01;;;;;;;4.95;1.30;;;9.50;85.70;;;8.74;67.84;98665.19;5049090;28;20049;-79
2023/04/13 01:26:44;;;;;;;5.45;1.20;;;9.40;85.70;;;8.77;68.32;98662.81;5069683;28;20152;-76
2023/04/13 01:29:14;;;;;;;3.78;1.27;;;9.50;85.90;;;8.81;68.16;98654.38;5053610;28;20041;-79
2023/04/13 01:31:41;;;;;;;5.28;1.33;;;9.50;85.80;;;8.82;67.95;98662.09;5068954;28;20074;-78
2023/04/13 01:34:09;;;;;;;3.90;1.30;;;9.50;85.50;;;8.82;67.65;98653.31;5065945;28;20502;-77
2023/04/13 01:36:40;;;;;;;4.38;1.45;;;9.50;85.50;;;8.71;67.09;98647.06;5053160;28;20040;-80
2023/04/13 01:39:09;;;;;;;5.07;1.30;;;9.40;84.90;;;8.74;67.80;98643.91;5069387;28;20048;-77
2023/04/13 01:41:37;;;;;;;4.30;1.05;;;9.40;85.60;;;8.75;67.36;98645.53;5056552;28;20045;-78
2023/04/13 01:44:04;;;;;;;4.40;1.20;;;9.50;85.30;;;8.73;67.66;98651.06;5051251;28;20102;-76
2023/04/13 01:46:36;;;;;;;5.30;1.23;;;9.40;85.00;;;8.62;67.54;98646.66;5070712;28;20059;-78
2023/04/13 01:49:18;;;;;;;3.58;1.00;;;9.30;85.30;;;8.55;67.51;98647.88;5048864;28;20516;-76
2023/04/13 01:52:05;;;;;;;5.07;1.15;;;9.30;85.60;;;8.62;68.41;98651.97;5069409;28;20056;-77
2023/04/13 01:54:35;;;;;;;6.05;1.33;;;9.30;85.90;;;8.64;68.51;98660.53;5059318;28;20144;-78
2023/04/13 01:57:04;;;;;;;4.50;1.08;;;9.40;86.10;;;8.68;68.48;98652.84;5052874;28;20045;-76
2023/04/13 01:59:34;;;;;;;6.65;1.20;;;9.40;85.90;;;8.74;68.49;98651.91;5069610;28;20132;-79
2023/04/13 02:02:03;;;;;;;5.82;1.10;;;9.40;85.80;;;8.75;68.37;98646.31;5063768;28;20068;-77
2023/04/13 02:04:32;;;;;;;2.85;0.93;;;9.40;85.90;;;8.68;67.76;98651.00;5050149;28;20528;-77
2023/04/13 02:07:01;;;;;;;3.33;0.95;;;9.40;85.70;;;8.70;68.23;98648.09;5069323;28;20056;-77
2023/04/13 02:09:34;;;;;;;5.65;1.40;;;9.40;85.80;;;8.73;68.09;98639.63;5053355;28;20060;-76
2023/04/13 02:12:02;;;;;;;3.38;1.00;;;9.40;85.70;;;8.75;68.12;98646.31;5033852;28;20127;-78
2023/04/13 02:14:29;;;;;;;3.15;1.00;;;9.50;85.70;;;8.79;68.67;98638.66;5060074;28;20072;-77
2023/04/13 02:16:57;;;;;;;5.75;1.13;;;9.50;86.10;;;8.78;67.65;98639.69;5081270;22;20056;-75
2023/04/13 02:19:25;;;;;;;5.15;1.10;;;9.50;85.20;;;8.77;67.62;98636.25;5046487;28;20136;-75
2023/04/13 02:21:52;;;;;;;5.00;1.08;;;9.50;85.50;;;8.79;67.77;98637.88;5039636;28;20572;-76
2023/04/13 02:24:20;;;;;;;5.03;1.05;;;9.50;85.50;;;8.80;67.70;98631.50;5048781;28;20049;-76
2023/04/13 02:26:48;;;;;;;6.30;1.20;;;9.50;85.30;;;8.77;67.76;98638.91;5021269;28;20141;-76
2023/04/13 02:29:16;;;;;;;5.10;1.13;;;9.50;85.30;;;8.75;66.96;98638.34;5017213;28;20038;-77
2023/04/13 02:31:45;;;;;;;4.00;1.20;;;9.50;84.60;;;8.71;67.18;98641.75;5014088;28;20057;-77
2023/04/13 02:34:12;;;;;;;3.47;0.90;;;9.40;84.90;;;8.72;67.36;98633.50;5008716;28;20046;-79
2023/04/13 02:36:44;;;;;;;3.65;1.10;;;9.50;85.10;;;8.72;67.34;98636.16;5010921;28;20464;-76
2023/04/13 02:39:13;;;;;;;4.78;1.05;;;9.40;84.80;;;8.68;67.19;98639.56;5017437;28;20049;-76
2023/04/13 02:41:41;;;;;;;4.40;1.00;;;9.40;85.00;;;8.65;67.76;98645.38;5012432;28;20128;-76
2023/04/13 02:44:09;;;;;;;5.00;0.90;;;9.40;85.30;;;8.65;67.56;98635.56;5023272;28;20087;-76
2023/04/13 02:46:46;;;;;;;4.18;1.23;;;9.40;85.10;;;8.52;67.91;98644.66;5010698;28;20128;-75
2023/04/13 02:49:16;;;;;;;3.85;1.00;;;9.30;85.70;;;8.56;68.45;98652.94;5027919;28;20037;-77
2023/04/13 02:51:57;;;;;;;6.00;1.42;;;9.30;86.10;;;8.64;68.71;98644.56;5007340;28;20498;-77
2023/04/13 02:54:37;;;;;;;7.00;1.17;;;9.40;86.20;;;8.63;68.71;98645.59;5027907;28;20061;-78
2023/04/13 02:57:05;;;;;;;6.13;1.55;;;9.30;86.30;;;8.64;68.90;98652.53;5019837;28;20049;-76
2023/04/13 02:59:35;;;;;;;3.85;1.10;;;9.30;86.30;;;8.62;69.00;98653.81;5024155;28;20049;-77
2023/04/13 03:02:05;;;;;;;3.20;0.90;;;9.30;86.50;;;8.66;69.39;98661.06;5040301;28;20053;-77
2023/04/13 03:04:34;;;;;;;4.03;1.10;;;9.40;86.80;;;8.66;69.05;98655.75;5004535;28;20053;-75
2023/04/13 03:07:04;;;;;;;3.10;0.90;;;9.40;86.50;;;8.67;69.36;98664.53;5008433;28;20056;-77
2023/04/13 03:09:33;;;;;;;5.35;1.20;;;9.40;86.70;;;8.67;69.43;98668.00;5022131;28;20056;-76
2023/04/13 03:12:01;;;;;;;4.85;1.00;;;9.40;86.90;;;8.72;69.48;98670.72;5043721;28;20051;-75
2023/04/13 03:14:28;;;;;;;5.88;0.90;;;9.40;86.90;;;8.74;69.59;98673.16;5018953;28;20422;-77
2023/04/13 03:17:01;;;;;;;4.53;1.02;;;9.40;87.10;;;8.76;69.40;98671.03;5012764;28;20409;-77
2023/04/13 03:19:37;;;;;;;4.25;1.08;;;9.40;86.90;;;8.79;69.44;98665.25;5014403;28;20046;-76
2023/04/13 03:22:07;;;;;;;6.32;1.45;;;9.50;86.90;;;8.72;69.26;98662.75;5013528;28;20081;-75
2023/04/13 03:24:38;;;;;;;7.07;1.15;;;9.40;86.80;;;8.74;69.22;98668.63;5007900;28;20097;-75
2023/04/13 03:27:08;;;;;;;3.55;1.00;;;9.40;86.70;;;8.75;69.17;98669.44;5019544;28;21656;-75
2023/04/13 03:29:41;;;;;;;4.63;1.20;;;9.50;86.70;;;8.76;69.22;98666.53;5020554;28;20053;-78
2023/04/13 03:32:12;;;;;;;;;;;9.50;86.70;;;8.76;68.71;98661.22;5012300;28;20060;-75
2023/04/13 03:34:44;;;;;;;5.18;1.42;;;9.40;86.30;;;8.78;69.03;98660.97;5029404;28;19931;-76
2023/04/13 03:37:15;;;;;;;3.60;1.08;;;9.50;86.60;;;8.82;69.11;98671.91;5038497;28;21520;-76
2023/04/13 03:39:43;;;;;;;6.35;1.20;;;9.50;86.70;;;8.86;68.90;98665.88;5022205;28;20128;-76
2023/04/13 03:42:22;;;;;;;5.05;1.17;;;9.50;86.30;;;8.77;67.97;98668.13;5026292;28;20064;-77
2023/04/13 03:44:55;;;;;;;3.25;1.00;;;9.50;85.70;;;8.75;68.23;98675.56;5017485;28;20041;-78
2023/04/13 03:47:23;;;;;;;4.32;1.10;;;9.50;86.00;;;8.72;68.68;98667.25;5013333;28;20537;-77
2023/04/13 03:49:51;;;;;;;6.38;1.05;;;9.40;86.20;;;8.68;67.69;98674.91;5011236;28;20077;-76
2023/04/13 03:52:19;;;;;;;5.32;1.10;;;9.40;85.30;;;8.61;68.28;98678.78;4999560;28;20115;-77
2023/04/13 03:54:54;;;;;;;5.15;1.15;;;9.30;86.10;;;8.65;68.53;98669.28;5014997;28;20513;-76
2023/04/13 03:57:22;;;;;;;4.75;1.00;;;9.40;86.10;;;8.57;67.95;98675.81;5016481;28;20488;-77
2023/04/13 03:59:50;;;;;;;3.08;0.80;;;9.30;85.50;;;8.47;68.56;98684.41;5012365;28;20517;-77
2023/04/13 04:02:26;;;;;;;3.85;1.17;;;9.20;86.20;;;8.43;68.53;98690.47;5004997;28;20041;-77
2023/04/13 04:04:53;;;;;;;3.90;1.02;;;9.20;86.10;;;8.46;68.70;98687.34;5013180;28;20136;-76
2023/04/13 04:07:22;;;;;;;3.58;1.02;;;9.20;86.60;;;8.49;68.95;98698.28;5016909;28;20058;-77
2023/04/13 04:09:50;;;;;;;5.22;1.13;;;9.20;86.50;;;8.50;68.68;98696.44;5037478;28;20109;-77
2023/04/13 04:12:19;;;;;;;4.32;1.02;;;9.20;86.40;;;8.47;68.74;98695.03;5017542;28;20048;-76
2023/04/13 04:14:46;;;;;;;3.45;0.90;;;9.20;86.40;;;8.48;69.24;98707.28;5013045;28;20053;-77
2023/04/13 04:17:18;;;;;;;2.28;0.77;;;9.30;86.80;;;8.47;68.95;98703.03;5037170;28;20049;-77
2023/04/13 04:19:46;;;;;;;2.63;0.85;;;9.20;86.40;;;8.49;68.95;98714.22;5032114;28;20056;-77
2023/04/13 04:22:13;;;;;;;3.67;0.80;;;9.20;86.50;;;8.54;69.17;98720.66;5034494;28;20046;-77
2023/04/13 04:24:44;;;;;;;5.40;0.90;;;9.30;86.70;;;8.50;68.97;98715.84;5023231;28;20131;-76
2023/04/13 04:27:13;;;;;;;3.20;0.88;;;9.30;86.70;;;8.43;69.54;98714.38;5022705;28;20060;-77
2023/04/13 04:29:47;;;;;;;2.57;0.80;;;9.20;87.10;;;8.41;69.41;98721.78;5018602;28;20585;-76
2023/04/13 04:32:28;;;;;;;3.05;0.88;;;9.20;86.90;;;8.44;69.46;98730.09;5014572;28;20061;-77
2023/04/13 04:35:11;;;;;;;2.45;0.90;;;9.20;87.10;;;8.41;70.13;98730.56;4996605;28;20133;-76
2023/04/13 04:37:44;;;;;;;4.03;1.00;;;9.10;87.60;;;8.35;69.59;98750.06;5012059;28;20077;-76
2023/04/13 04:40:19;;;;;;;4.25;0.82;;;9.10;87.30;;;8.32;70.29;98741.78;5006443;28;20060;-76
2023/04/13 04:42:47;;;;;;;3.22;0.90;;;9.10;87.60;;;8.36;70.59;98749.06;5013494;28;20135;-76
2023/04/13 04:45:26;;;;;;;4.28;1.10;;;9.10;87.70;;;8.29;69.65;98758.97;5021696;28;20110;-77
2023/04/13 04:47:56;;;;;;;3.47;0.90;;;9.00;87.10;;;8.26;70.40;98747.00;5014639;28;20055;-76
2023/04/13 04:50:26;;;;;;;5.63;1.00;;;9.00;87.60;;;8.21;70.80;98760.19;5002160;28;20077;-75
2023/04/13 04:53:00;;;;;;;4.38;1.13;;;9.00;88.00;;;8.30;70.76;98757.16;5004436;28;20049;-76
2023/04/13 04:55:30;;;;;;;3.70;0.98;;;9.00;88.10;;;8.31;70.82;98774.69;4999183;28;20061;-76
2023/04/13 04:57:58;;;;;;;3.17;0.70;;;9.00;88.00;;;8.29;71.06;98784.72;5010233;28;20042;-76
2023/04/13 05:00:29;;;;;;;3.78;1.00;;;9.00;88.50;;;8.28;71.22;98786.59;5014464;28;20040;-76
2023/04/13 05:03:11;;;;;;;5.13;0.88;;;9.00;88.70;;;8.30;71.00;98778.41;5003257;28;20057;-76
2023/04/13 05:05:43;;;;;;;5.15;1.08;;;9.00;88.10;;;8.33;70.86;98783.22;5040810;28;20107;-75
2023/04/13 05:08:15;;;;;;;2.80;0.80;;;9.10;88.30;;;8.30;70.97;98791.69;5043469;28;20047;-77
2023/04/13 05:10:49;;;;;;;3.80;0.80;;;9.00;88.10;;;8.38;71.52;98796.63;5013124;28;20049;-77
2023/04/13 05:13:16;;;;;;;4.38;1.02;;;9.10;88.70;;;8.37;71.24;98800.31;5003236;28;20041;-76
2023/04/13 05:15:51;;;;;;;6.55;1.20;;;9.10;88.60;;;8.36;71.24;98788.06;5013029;28;20160;-76
2023/04/13 05:18:19;;;;;;;4.65;1.23;;;9.10;88.50;;;8.39;71.25;98806.19;5032681;28;20533;-74
2023/04/13 05:20:46;;;;;;;5.78;1.20;;;9.10;88.30;;;8.42;70.86;98811.03;5006767;28;20045;-76
2023/04/13 05:23:14;;;;;;;5.22;1.20;;;9.10;88.20;;;8.40;71.13;98813.16;5034569;28;20048;-78
2023/04/13 05:25:53;;;;;;;3.78;1.00;;;9.10;88.50;;;8.31;71.64;98820.66;5014250;28;20058;-76
2023/04/13 05:28:22;;;;;;;3.65;1.00;;;9.00;88.90;;;8.31;71.55;98831.28;5017417;28;20065;-74
2023/04/13 05:30:49;;;;;;;3.85;1.13;;;9.00;88.60;;;8.34;71.68;98844.06;5026646;28;20132;-74
2023/04/13 05:33:19;;;;;;;6.30;1.30;;;9.10;88.80;;;8.35;71.79;98844.91;5003651;28;20049;-75
2023/04/13 05:35:48;;;;;;;4.60;1.25;;;9.10;88.90;;;8.38;71.60;98849.75;5001639;28;20043;-75
2023/04/13 05:38:16;;;;;;;4.90;1.45;;;9.10;88.80;;;8.38;72.06;98849.75;5027731;28;20046;-77
2023/04/13 05:40:43;;;;;;;5.60;1.40;;;9.10;88.90;;;8.44;71.75;98856.75;5037340;28;20041;-77
2023/04/13 05:43:13;;;;;;;2.88;1.10;;;9.20;88.70;;;8.45;71.69;98869.03;5006558;28;20046;-76
2023/04/13 05:45:46;;;;;;;5.47;1.25;;;9.20;88.70;;;8.45;71.75;98867.16;5011885;28;20479;-76
2023/04/13 05:48:15;;;;;;;3.03;1.10;;;9.20;88.90;;;8.52;71.75;98880.31;5007721;28;20045;-76
2023/04/13 05:50:44;;;;;;;6.78;1.40;;;9.20;88.70;;;8.59;71.90;98885.47;5015214;28;20045;-76
2023/04/13 05:53:12;;;;;;;6.38;1.50;;;9.30;89.10;;;8.70;72.13;98888.09;5014494;28;20072;-76
2023/04/13 05:55:49;;;;;;;5.13;1.30;;;9.40;89.40;;;8.74;72.41;98897.22;5019480;28;20067;-78
2023/04/13 05:58:19;;;;;;;7.38;1.88;;;9.50;89.40;;;8.80;71.75;98903.44;5008320;28;20454;-77
2023/04/13 06:00:49;;;;;;;4.20;1.50;;;9.50;88.70;;;8.80;71.38;98910.59;5010883;28;20053;-77
2023/04/13 06:03:26;;;;;;;4.95;1.42;;;9.50;88.50;;;8.79;71.43;98920.44;5011173;28;20049;-77
2023/04/13 06:05:53;;;;;;;6.45;1.50;;;9.50;88.50;;;8.84;71.40;98911.75;5007104;28;20490;-77
2023/04/13 06:08:21;;;;;;;7.38;1.75;;;9.60;88.30;;;8.90;71.36;98916.91;5014121;28;20511;-75
2023/04/13 06:10:57;;;;;;;5.38;1.70;;;9.60;88.40;;;8.93;70.95;98919.09;5025833;28;20045;-76
2023/04/13 06:13:26;;;;;;;4.45;1.50;;;9.60;87.90;;;8.96;71.19;98934.53;5024812;28;20132;-76
2023/04/13 06:15:53;;;;;;;5.55;1.85;;;9.70;88.20;;;8.98;71.05;98929.00;5009229;28;20124;-76
2023/04/13 06:18:21;;;;;;;4.47;2.00;;;9.70;88.30;;;9.03;70.62;98932.56;5026956;28;20061;-75
2023/04/13 06:20:48;;;;;;;6.70;1.90;;;9.80;87.70;;;9.08;71.08;98931.00;5009449;28;20741;-76
2023/04/13 06:23:16;;;;;;;7.10;1.77;;;9.80;88.00;;;9.09;70.94;98938.78;5025072;28;20046;-78
2023/04/13 06:25:43;;;;;;;6.38;1.40;;;9.80;87.90;;;9.12;70.25;98942.78;5016421;28;20072;-76
2023/04/13 06:28:13;;;;;;;4.88;1.63;;;9.90;87.30;;;9.12;70.06;98950.78;5008076;28;20069;-77
2023/04/13 06:30:45;;;;;;;6.22;1.85;;;9.80;87.10;;;9.18;70.28;98955.16;5004535;28;20421;-77
2023/04/13 06:33:15;;;;;;;4.45;1.42;;;9.90;87.40;;;9.22;70.03;98949.13;5003594;28;20124;-78
2023/04/13 06:35:42;;;;;;;7.85;1.80;;;10.10;87.10;;;9.20;68.79;98945.06;4997910;28;20073;-76
2023/04/13 06:38:11;;;;;;;4.63;1.48;;;10.00;86.30;;;9.22;69.50;98958.94;5033373;28;20049;-76
2023/04/13 06:40:51;;;;;;;12.93;2.00;;;10.00;86.70;;;9.25;68.36;98959.25;5012023;28;20490;-77
2023/04/13 06:43:18;;;;;;;6.10;1.52;;;10.00;85.60;;;9.28;68.14;98960.66;5033061;28;20042;-77
2023/04/13 06:45:58;;;;;;;6.35;1.70;;;10.00;85.50;;;9.37;68.91;98964.53;5014389;28;20433;-77
2023/04/13 06:48:28;;;;;;;4.40;1.30;;;10.10;86.30;;;9.46;68.16;98968.38;5004934;28;20058;-77
2023/04/13 06:50:59;;;;;;;5.13;1.30;;;10.20;85.20;;;9.57;67.73;98963.25;5032867;28;20053;-75
2023/04/13 06:53:28;;;;;;;4.60;1.83;;;10.30;85.20;;;9.60;67.30;98973.41;5024420;28;20053;-76
2023/04/13 06:55:55;;;;;;;5.88;1.88;;;10.40;84.80;;;9.63;67.04;98983.59;5005388;28;20053;-76
2023/04/13 06:58:23;;;;;;;6.13;1.70;;;10.40;84.50;;;9.64;66.42;98982.53;5023633;28;20049;-75
2023/04/13 07:00:51;;;;;;;5.13;1.73;;;10.40;83.70;;;9.67;66.05;98980.19;5004648;28;20140;-75
2023/04/13 07:03:19;;;;;;;8.30;1.90;;;10.40;83.30;;;9.68;66.05;98981.81;5025069;28;20049;-75
2023/04/13 07:05:47;;;;;;;4.07;1.73;;;10.50;83.50;;;9.75;66.18;98982.44;5005442;28;20512;-77
2023/04/13 07:08:18;;;;;;;3.85;1.33;;;10.60;83.70;;;9.86;66.65;98988.75;5029810;28;20045;-77
2023/04/13 07:10:45;;;;;;;7.43;1.80;;;10.60;84.00;;;9.92;66.48;99000.28;5008058;28;20045;-75
2023/04/13 07:13:29;;;;;;;4.28;1.50;;;10.70;83.90;;;9.97;66.04;98989.72;5006262;28;20045;-76
2023/04/13 07:15:59;;;;;;;5.70;1.50;;;10.80;83.30;;;10.00;64.67;98991.88;5003733;28;20050;-75
2023/04/13 07:18:27;;;;;;;6.03;1.70;;;10.80;81.80;;;9.91;62.61;98998.69;5006788;28;20137;-79
2023/04/13 07:20:54;;;;;;;6.82;1.55;;;10.70;80.30;;;9.90;63.88;98994.38;5039280;28;20728;-87
2023/04/13 07:23:25;;;;;;;5.32;1.88;;;10.70;81.40;;;9.92;64.23;99000.28;5043657;28;20051;-83
2023/04/13 07:25:53;;;;;;;4.78;1.48;;;10.70;81.80;;;9.93;64.90;98999.22;5009031;28;20050;-81
2023/04/13 07:28:25;;;;;;;5.80;1.90;;;10.70;82.50;;;10.02;63.12;99011.09;5041460;28;20046;-83
2023/04/13 07:30:55;;;;;;;;;;;10.80;80.50;;;9.98;64.10;99012.63;5034070;28;20096;-89
2023/04/13 07:33:25;;;;;;;5.93;1.70;;;10.80;82.00;;;10.08;65.05;99012.78;5011474;28;19924;-80
2023/04/13 07:35:54;;;;;;;4.32;1.38;;;10.90;82.70;;;10.15;64.28;99024.09;5010707;28;20465;-80
2023/04/13 07:38:23;;;;;;;4.25;1.60;;;10.90;81.80;;;10.12;63.28;99013.91;5013013;28;20049;-78
2023/04/13 07:40:54;;;;;;;5.80;1.70;;;10.90;80.90;;;10.13;64.13;99026.16;5008131;28;20037;-79
2023/04/13 07:43:25;;;;;;;4.35;1.50;;;10.90;81.80;;;10.19;64.84;99019.84;5023118;28;20084;-80
2023/04/13 07:45:53;;;;;;;5.10;1.40;;;11.00;82.10;;;10.18;63.51;99023.56;5007425;28;20042;-78
2023/04/13 07:48:21;;;;;;;10.15;1.65;;;11.00;80.80;;;10.15;63.27;99031.25;5026898;28;20037;-82
2023/04/13 07:50:50;;;;;;;4.70;1.38;;;11.00;80.70;;;10.13;63.13;99036.03;5004500;28;20041;-84
2023/04/13 07:53:21;;;;;;;3.42;1.20;;;10.90;80.60;;;9.99;62.69;99036.34;5030212;28;20046;-81
2023/04/13 07:55:49;;;;;;;5.40;1.35;;;10.80;80.00;;;9.87;63.86;99046.28;5015834;28;20049;-80
2023/04/13 07:58:17;;;;;;;5.47;1.23;;;10.70;81.40;;;9.77;63.92;99052.25;5009196;28;20416;-81
2023/04/13 08:00:46;;;;;;;3.90;1.30;;;10.60;81.20;;;9.78;64.71;99047.72;5009935;28;20125;-80
2023/04/13 08:03:16;;;;;;;4.78;1.58;;;10.60;82.00;;;9.82;65.50;99053.38;5013326;28;20053;-81
2023/04/13 08:05:49;;;;;;;6.07;1.52;;;10.60;82.90;;;9.79;65.01;99050.13;5011404;28;20033;-78
2023/04/13 08:08:16;;;;;;;5.95;1.50;;;10.60;82.40;;;9.78;64.55;99059.19;5031652;28;20521;-81
2023/04/13 08:10:44;;;;;;;6.55;1.50;;;10.50;82.00;;;9.72;65.45;99062.00;5013113;28;20439;-82
2023/04/13 08:13:12;;;;;;;4.50;1.70;;;10.50;83.10;;;9.67;65.26;99065.38;5029104;28;20080;-80
2023/04/13 08:15:40;;;;;;;9.93;1.55;;;10.50;82.90;;;9.59;65.27;99065.75;5011358;28;20073;-82
2023/04/13 08:18:07;;;;;;;5.22;1.50;;;10.40;82.60;;;9.62;65.37;99073.28;5015885;28;20075;-80
2023/04/13 08:20:36;;;;;;;6.75;1.38;;;10.40;82.70;;;9.63;65.28;99068.75;5018382;28;20053;-80
2023/04/13 08:23:05;;;;;;;5.20;1.60;;;10.40;82.90;;;9.62;65.71;99081.25;5040655;22;20053;-84
2023/04/13 08:25:38;;;;;;;5.00;1.42;;;10.40;83.20;;;9.56;65.18;99084.84;5041055;28;20045;-83
2023/04/13 08:28:06;;;;;;;5.18;1.60;;;10.40;82.80;;;9.57;64.35;99094.47;5040169;28;20048;-85
2023/04/13 08:30:34;;;;;;;4.78;1.42;;;10.30;82.00;;;9.49;65.09;99103.66;5046428;28;20048;-83
2023/04/13 08:33:03;;;;;;;8.77;1.70;;;10.30;82.80;;;9.46;65.06;99096.13;5057468;28;20068;-80
2023/04/13 08:35:31;;;;;;;6.03;1.70;;;10.20;82.90;;;9.54;65.61;99102.94;5044840;28;20106;-79
2023/04/13 08:38:04;;;;;;;7.78;1.80;;;10.30;83.20;;;9.61;65.86;99108.91;5056987;28;20056;-80
2023/04/13 08:40:36;;;;;;;8.73;2.30;;;10.40;83.30;;;9.65;65.73;99115.38;5045676;28;20037;-79
2023/04/13 08:43:03;;;;;;;6.65;1.70;;;10.40;83.00;;;9.68;65.79;99111.44;5048529;28;20041;-82
2023/04/13 08:45:33;;;;;;;6.85;1.45;;;10.40;83.30;;;9.70;66.25;99109.34;5053641;28;20049;-81
2023/04/13 08:48:01;;;;;;;6.38;1.80;;;10.40;83.50;;;9.66;65.21;99111.69;5045495;28;20087;-81
2023/04/13 08:50:30;;;;;;;9.90;2.13;;;10.40;82.60;;;9.60;65.57;99128.59;5058367;28;20052;-84
2023/04/13 08:52:59;;;;;;;9.00;1.85;;;10.40;83.10;;;9.63;66.25;99125.47;5048596;28;20053;-83
2023/04/13 08:55:29;;;;;;;7.95;1.75;;;10.40;83.80;;;9.65;66.09;99126.03;5062233;28;20040;-84
2023/04/13 08:58:00;;;;;;;7.72;1.98;;;10.40;83.40;;;9.65;65.67;99131.34;5046484;28;20044;-84
2023/04/13 09:00:30;;;;;;;6.90;1.75;;;10.40;83.10;;;9.67;65.44;99145.25;5047544;28;20045;-82
2023/04/13 09:03:02;;;;;;;6.07;1.75;;;10.40;82.60;;;9.68;65.43;99146.84;5047204;28;20055;-83
2023/04/13 09:05:32;;;;;;;9.55;1.73;;;10.40;83.00;;;9.65;65.26;99152.63;5033929;28;20509;-83
2023/04/13 09:08:06;;;;;;;8.30;1.90;;;10.40;82.70;;;9.62;64.75;99161.13;5044219;28;20052;-82
2023/04/13 09:10:35;;;;;;;5.65;1.80;;;10.40;82.40;;;9.64;65.45;99166.19;5045788;28;20049;-82
2023/04/13 09:13:02;;;;;;;8.70;1.95;;;10.40;82.90;;;9.60;65.30;99165.84;5041463;28;20163;-83
2023/04/13 09:15:32;;;;;;;8.23;2.03;;;10.40;83.00;;;9.66;65.46;99174.75;5048998;28;20432;-83
2023/04/13 09:18:12;;;;;;;7.60;2.35;;;10.50;83.30;;;9.66;65.11;99180.91;5040450;28;20049;-83
2023/04/13 09:20:43;;;;;;;5.05;2.00;;;10.40;82.40;;;9.61;65.84;99180.78;5064971;28;20041;-82
2023/04/13 09:23:15;;;;;;;5.40;1.88;;;10.40;83.40;;;9.65;66.14;99183.78;5046910;28;20743;-83
2023/04/13 09:25:45;;;;;;;10.05;2.13;;;10.40;83.60;;;9.67;65.99;99190.50;5046675;28;20473;-83
2023/04/13 09:28:17;;;;;;;9.80;2.10;;;10.40;83.30;;;9.70;66.48;99187.34;5049116;28;20045;-83
2023/04/13 09:30:45;;;;;;;9.23;2.10;;;10.50;84.00;;;9.72;66.81;99193.25;5043379;28;20119;-82
2023/04/13 09:33:14;;;;;;;10.77;1.95;;;10.50;84.10;;;9.76;66.80;99194.41;5047207;28;20049;-83
2023/04/13 09:35:41;;;;;;;9.85;2.25;;;10.60;84.10;;;9.76;66.85;99197.06;5049430;28;20114;-83
2023/04/13 09:38:10;;;;;;;10.00;2.20;;;10.50;84.30;;;9.82;66.57;99199.81;5046193;28;20043;-81
2023/04/13 09:40:51;;;;;;;9.75;2.20;;;10.60;83.90;;;9.91;67.47;99196.53;5044065;28;20059;-85
2023/04/13 09:43:19;;;;;;;9.45;2.50;;;10.70;84.90;;;10.01;67.06;99196.72;5047609;28;20068;-85
2023/04/13 09:45:47;;;;;;;11.45;2.53;;;10.80;84.40;;;10.14;67.36;99203.59;5046626;28;20508;-83
2023/04/13 09:48:19;;;;;;;7.55;2.10;;;10.90;84.70;;;10.27;67.54;99200.66;5044071;28;20042;-82
2023/04/13 09:50:57;;;;;;;10.35;2.53;;;11.00;84.80;;;10.35;66.26;99196.00;5044157;28;20087;-82
2023/04/13 09:53:26;;;;;;;7.63;2.30;;;11.10;83.50;;;10.40;65.58;99196.09;5047280;28;20040;-82
2023/04/13 09:55:59;;;;;;;6.55;2.03;;;11.20;82.90;;;10.43;64.99;99191.06;5045360;28;20048;-82
2023/04/13 09:58:27;;;;;;;8.00;2.58;;;11.20;82.20;;;10.44;63.42;99197.22;5042395;28;20048;-82
2023/04/13 10:00:55;;;;;;;12.07;2.40;;;11.20;80.40;;;10.38;62.45;99200.84;5048553;28;20047;-76
2023/04/13 10:03:22;;;;;;;14.10;2.15;;;11.20;79.90;;;10.41;63.54;99203.84;5046083;28;20072;-77
2023/04/13 10:05:51;;;;;;;7.30;2.00;;;11.20;81.00;;;10.38;61.94;99206.97;5048132;28;20548;-80
2023/04/13 10:08:18;;;;;;;10.77;2.25;;;11.20;79.10;;;10.35;62.09;99209.34;5047061;28;20075;-76
2023/04/13 10:10:45;;;;;;;6.57;2.00;;;11.20;79.40;;;10.40;62.44;99214.75;5046524;28;20560;-79
2023/04/13 10:13:18;;;;;;;8.43;2.05;;;11.20;79.70;;;10.39;62.16;99221.91;5046077;28;20429;-76
2023/04/13 10:16:30;;;;;;;10.15;2.17;;;11.20;79.40;;;10.37;61.89;99217.88;5044541;28;20076;-74
2023/04/13 10:19:01;;;;;;;10.18;2.22;;;11.20;79.30;;;10.36;61.68;99221.59;5037260;28;20088;-74
2023/04/13 10:21:34;;;;;;;9.00;2.50;;;11.10;79.10;;;10.37;62.60;99212.56;5038514;28;20509;-75
2023/04/13 10:24:02;;;;;;;10.18;1.90;;;11.20;80.20;;;10.36;61.52;99224.28;5042085;28;20052;-76
2023/04/13 10:26:32;;;;;;;10.85;2.70;;;11.20;78.90;;;10.36;61.80;99221.59;5044667;28;20501;-75
2023/04/13 10:29:02;;;;;;;7.50;2.10;;;11.20;79.20;;;10.39;62.48;99231.78;5038258;28;20095;-74
2023/04/13 10:31:38;;;;;;;8.68;2.13;;;11.20;79.80;;;10.40;61.63;99234.22;5046256;28;20065;-76
2023/04/13 10:34:06;;;;;;;14.00;3.10;;;11.20;79.00;;;10.42;62.14;99236.63;5046890;28;20040;-75
2023/04/13 10:36:39;;;;;;;9.50;2.72;;;11.20;79.50;;;10.40;60.89;99234.22;5044989;28;20063;-75
2023/04/13 10:39:08;;;;;;;8.88;2.22;;;11.20;78.10;;;10.39;61.35;99250.44;5060501;28;20077;-76
2023/04/13 10:41:36;;;;;;;14.07;2.55;;;11.20;78.80;;;10.39;61.83;99248.56;5047884;28;20720;-75
2023/04/13 10:44:07;;;;;;;13.10;2.72;;;11.20;79.20;;;10.44;62.85;99246.03;5045066;28;20505;-76